Time;durP1;ratioP1;P1;durP2;ratioP2;P2;SDS_P1;SDS_P2;PMS_P1;PMS_P2;Temp;Humidity;BMP_temperature;BMP_pressure;BME280_temperature;BME280_humidity;BME280_pressure;Samples;Min_cycle;Max_cycle;Signal;HPM_P1;HPM_P2
2021/01/27 00:01:00;;;;;;;14.57;6.07;;;0.70;99.90;;;;;;4965867;29;20387;-78
2021/01/27 00:03:29;;;;;;;17.93;8.40;;;0.60;99.90;;;;;;4965902;29;20062;-79
2021/01/27 00:06:01;;;;;;;15.50;7.23;;;0.60;99.90;;;;;;4962006;29;20051;-79
2021/01/27 00:08:28;;;;;;;;;;;0.60;99.90;;;;;;4965261;29;20391;-79
2021/01/27 00:10:57;;;;;;;17.08;6.85;;;0.60;99.90;;;;;;4961693;28;19923;-79
2021/01/27 00:13:30;;;;;;;15.53;6.83;;;0.60;99.90;;;;;;4944903;29;20494;-79
2021/01/27 00:15:58;;;;;;;13.37;5.73;;;0.60;99.90;;;;;;4959908;28;20059;-79
2021/01/27 00:18:25;;;;;;;17.40;7.07;;;0.60;99.90;;;;;;4941698;29;20360;-80
2021/01/27 00:20:55;;;;;;;16.10;8.03;;;0.60;99.90;;;;;;4959917;28;20059;-80
2021/01/27 00:23:23;;;;;;;16.53;6.57;;;0.60;99.90;;;;;;4960145;28;20043;-79
2021/01/27 00:25:51;;;;;;;9.40;3.50;;;0.70;99.90;;;;;;4959571;29;20066;-79
2021/01/27 00:28:18;;;;;;;12.50;6.00;;;0.70;99.90;;;;;;4945843;29;20062;-79
2021/01/27 00:30:50;;;;;;;13.57;6.60;;;0.60;99.90;;;;;;4946698;29;20051;-80
2021/01/27 00:33:18;;;;;;;17.25;7.32;;;0.60;99.90;;;;;;4947697;29;20062;-79
2021/01/27 00:35:49;;;;;;;13.02;5.95;;;0.60;99.90;;;;;;4942842;29;20066;-79
2021/01/27 00:38:19;;;;;;;15.47;6.87;;;0.70;99.90;;;;;;4955223;29;20062;-79
2021/01/27 00:40:48;;;;;;;18.27;8.13;;;0.70;99.90;;;;;;4965130;29;20063;-80
2021/01/27 00:43:16;;;;;;;16.60;6.80;;;0.80;99.90;;;;;;4964348;29;20074;-79
2021/01/27 00:45:50;;;;;;;19.77;7.43;;;0.80;99.90;;;;;;4964325;29;20055;-79
2021/01/27 00:48:21;;;;;;;13.30;6.37;;;0.80;99.90;;;;;;4965772;29;20047;-79
2021/01/27 00:50:51;;;;;;;19.90;6.88;;;0.90;99.90;;;;;;4949804;29;20066;-79
2021/01/27 00:53:23;;;;;;;13.73;6.43;;;0.90;99.90;;;;;;4967142;28;20055;-80
2021/01/27 00:55:51;;;;;;;12.97;5.77;;;0.90;99.90;;;;;;4966613;29;20062;-79
2021/01/27 00:58:20;;;;;;;13.77;6.80;;;0.90;99.90;;;;;;4950540;29;20042;-79
2021/01/27 01:00:53;;;;;;;13.83;6.57;;;0.90;99.90;;;;;;4951919;29;20055;-79
2021/01/27 01:03:28;;;;;;;15.50;6.63;;;0.90;99.90;;;;;;4964398;29;20066;-79
2021/01/27 01:05:56;;;;;;;11.37;5.57;;;0.90;99.90;;;;;;4948480;29;20062;-79
2021/01/27 01:08:26;;;;;;;11.33;5.90;;;0.90;99.90;;;;;;4948364;29;20062;-79
2021/01/27 01:10:59;;;;;;;16.20;6.30;;;0.90;99.90;;;;;;4966583;29;20063;-79
2021/01/27 01:13:30;;;;;;;14.30;5.87;;;0.90;99.90;;;;;;4967020;28;20051;-79
2021/01/27 01:15:59;;;;;;;13.17;6.20;;;0.90;99.90;;;;;;4951667;29;20066;-79
2021/01/27 01:18:27;;;;;;;6.17;2.77;;;0.80;99.90;;;;;;4950889;29;20062;-79
2021/01/27 01:20:54;;;;;;;14.27;6.07;;;0.80;99.90;;;;;;4951457;29;20055;-78
2021/01/27 01:23:24;;;;;;;12.80;5.20;;;0.70;99.90;;;;;;4949268;29;20047;-80
2021/01/27 01:25:52;;;;;;;12.73;5.63;;;0.70;99.90;;;;;;4946796;29;20055;-78
2021/01/27 01:28:20;;;;;;;13.10;6.17;;;0.60;99.90;;;;;;4962860;29;20051;-79
2021/01/27 01:30:52;;;;;;;14.40;6.33;;;0.50;99.90;;;;;;4962352;29;20066;-79
2021/01/27 01:33:23;;;;;;;15.03;6.10;;;0.50;99.90;;;;;;4962996;28;20058;-78
2021/01/27 01:35:50;;;;;;;12.73;6.20;;;0.50;99.90;;;;;;4965301;28;20051;-79
2021/01/27 01:38:18;;;;;;;14.07;6.00;;;0.50;99.90;;;;;;4965966;28;20055;-79
2021/01/27 01:40:48;;;;;;;11.40;5.30;;;0.50;99.90;;;;;;4966285;29;20051;-79
2021/01/27 01:43:20;;;;;;;13.20;4.30;;;0.50;99.90;;;;;;4963527;29;20051;-79
2021/01/27 01:45:49;;;;;;;11.33;5.80;;;0.40;99.90;;;;;;4947453;29;20074;-79
2021/01/27 01:48:29;;;;;;;12.07;5.70;;;0.40;99.90;;;;;;4963026;29;20051;-79
2021/01/27 01:51:01;;;;;;;12.90;5.97;;;0.40;99.90;;;;;;4962013;28;20070;-79
2021/01/27 01:53:28;;;;;;;12.47;5.60;;;0.30;99.90;;;;;;4946120;29;20058;-79
2021/01/27 01:56:00;;;;;;;12.47;5.50;;;0.30;99.90;;;;;;4945039;29;20490;-79
2021/01/27 01:58:28;;;;;;;17.27;5.10;;;0.20;99.90;;;;;;4960223;29;20047;-79
2021/01/27 02:00:59;;;;;;;12.05;5.07;;;0.20;99.90;;;;;;4944988;29;20070;-78
2021/01/27 02:03:33;;;;;;;16.67;5.80;;;0.20;99.90;;;;;;4957664;28;20062;-79
2021/01/27 02:06:02;;;;;;;12.73;5.80;;;0.10;99.90;;;;;;4943247;29;20070;-79
2021/01/27 02:08:31;;;;;;;13.50;6.18;;;0.10;99.90;;;;;;4959770;28;20066;-79
2021/01/27 02:10:58;;;;;;;;;;;0.10;99.90;;;;;;4962382;28;20047;-79
2021/01/27 02:13:41;;;;;;;14.47;5.03;;;0.10;99.90;;;;;;4963977;28;19926;-78
2021/01/27 02:16:20;;;;;;;13.03;5.67;;;0.00;99.90;;;;;;4964446;29;20070;-79
2021/01/27 02:19:40;;;;;;;12.07;6.00;;;0.00;99.90;;;;;;4963413;29;20070;-79
2021/01/27 02:22:24;;;;;;;15.00;4.90;;;-0.10;99.90;;;;;;4958952;29;20509;-78
2021/01/27 02:25:43;;;;;;;15.23;6.00;;;0.00;99.90;;;;;;4962677;29;20066;-79
2021/01/27 02:28:13;;;;;;;20.13;6.30;;;-0.10;99.90;;;;;;4945401;29;20051;-79
2021/01/27 02:30:52;;;;;;;15.40;7.13;;;-0.10;99.90;;;;;;4962868;28;20447;-80
2021/01/27 02:33:53;;;;;;;12.87;4.73;;;-0.10;99.90;;;;;;4965731;28;20055;-79
2021/01/27 02:36:25;;;;;;;6.67;3.17;;;-0.10;99.90;;;;;;4897658;28;20496;-79
2021/01/27 02:39:00;;;;;;;13.40;6.00;;;-0.10;99.90;;;;;;4963107;29;20055;-79
2021/01/27 02:41:39;;;;;;;15.80;6.20;;;-0.10;99.90;;;;;;4964299;28;20051;-79
2021/01/27 02:44:12;;;;;;;12.83;6.57;;;-0.10;99.90;;;;;;4950135;29;20061;-79
2021/01/27 02:46:44;;;;;;;14.60;6.00;;;0.00;99.90;;;;;;4948810;29;20391;-79
2021/01/27 02:49:20;;;;;;;10.90;4.73;;;0.00;99.90;;;;;;4948849;28;20055;-79
2021/01/27 02:51:54;;;;;;;15.03;6.50;;;0.10;99.90;;;;;;4951823;29;20055;-78
2021/01/27 02:54:23;;;;;;;17.37;6.27;;;0.10;99.90;;;;;;4950986;29;20435;-78
2021/01/27 02:56:57;;;;;;;12.87;6.30;;;0.20;99.90;;;;;;4948693;29;20063;-79
2021/01/27 02:59:33;;;;;;;17.50;7.43;;;0.20;99.90;;;;;;4947028;29;20055;-78
2021/01/27 03:02:07;;;;;;;17.83;7.70;;;0.30;99.90;;;;;;4962980;29;20051;-78
2021/01/27 03:04:41;;;;;;;16.43;7.13;;;0.30;99.90;;;;;;4966826;28;20062;-79
2021/01/27 03:07:12;;;;;;;14.40;6.70;;;0.40;99.90;;;;;;4970807;28;20058;-79
2021/01/27 03:09:45;;;;;;;18.07;8.07;;;0.40;99.90;;;;;;4970797;28;20374;-78
2021/01/27 03:12:16;;;;;;;13.90;5.90;;;0.50;99.90;;;;;;4969395;29;20055;-78
2021/01/27 03:14:46;;;;;;;7.27;3.43;;;0.50;99.90;;;;;;4952236;29;20062;-78
2021/01/27 03:17:17;;;;;;;10.30;5.37;;;0.50;99.90;;;;;;4967078;29;20356;-78
2021/01/27 03:19:53;;;;;;;18.77;8.30;;;0.50;99.90;;;;;;4930382;29;20059;-79
2021/01/27 03:22:24;;;;;;;10.23;5.17;;;0.50;99.90;;;;;;4944260;29;20058;-78
2021/01/27 03:24:56;;;;;;;17.60;7.30;;;0.50;99.90;;;;;;4944563;29;20391;-79
2021/01/27 03:27:30;;;;;;;19.30;8.03;;;0.50;99.90;;;;;;4960764;28;20066;-78
2021/01/27 03:30:00;;;;;;;17.63;7.27;;;0.50;99.90;;;;;;4944766;29;20074;-79
2021/01/27 03:32:46;;;;;;;16.73;7.90;;;0.60;99.90;;;;;;4961441;28;20047;-78
2021/01/27 03:35:29;;;;;;;17.20;7.03;;;0.60;99.90;;;;;;4963295;28;20067;-79
2021/01/27 03:38:01;;;;;;;20.87;8.13;;;0.60;99.90;;;;;;4963961;28;20051;-79
2021/01/27 03:40:29;;;;;;;17.47;7.27;;;0.70;99.90;;;;;;4964690;28;20059;-79
2021/01/27 03:43:05;;;;;;;21.13;7.85;;;0.70;99.90;;;;;;4962942;29;20051;-79
2021/01/27 03:45:36;;;;;;;15.10;5.67;;;0.70;99.90;;;;;;4964261;28;20051;-79
2021/01/27 03:48:09;;;;;;;22.00;8.83;;;0.70;99.90;;;;;;4963643;28;20071;-79
2021/01/27 03:50:38;;;;;;;20.93;9.37;;;0.70;99.90;;;;;;4948233;29;20055;-79
2021/01/27 03:53:09;;;;;;;;;;;0.70;99.90;;;;;;4948713;29;20063;-79
2021/01/27 03:55:43;;;;;;;20.37;8.83;;;0.70;99.90;;;;;;4964580;28;19926;-80
2021/01/27 03:58:17;;;;;;;21.83;8.67;;;0.70;99.90;;;;;;4964565;29;20074;-79
2021/01/27 04:00:50;;;;;;;21.37;9.57;;;0.70;99.90;;;;;;4964393;28;20066;-79
2021/01/27 04:03:19;;;;;;;26.30;10.10;;;0.70;99.90;;;;;;4965162;29;20051;-79
2021/01/27 04:05:47;;;;;;;22.00;9.57;;;0.70;99.90;;;;;;4947777;29;20055;-78
2021/01/27 04:08:18;;;;;;;22.40;10.23;;;0.80;99.90;;;;;;4965529;28;20058;-79
2021/01/27 04:10:48;;;;;;;22.57;9.20;;;0.80;99.90;;;;;;4964625;29;20055;-79
2021/01/27 04:13:19;;;;;;;20.73;9.77;;;0.80;99.90;;;;;;4945179;29;20395;-80
2021/01/27 04:15:46;;;;;;;19.03;9.43;;;0.90;99.90;;;;;;4960975;28;20074;-80
2021/01/27 04:18:16;;;;;;;22.67;10.10;;;0.90;99.90;;;;;;4959764;28;20324;-79
2021/01/27 04:20:44;;;;;;;21.00;9.57;;;1.00;99.90;;;;;;4960291;29;20055;-79
2021/01/27 04:23:11;;;;;;;21.47;7.47;;;1.00;99.90;;;;;;4944758;29;20490;-80
2021/01/27 04:25:40;;;;;;;22.17;10.00;;;1.00;99.90;;;;;;4963789;28;20066;-80
2021/01/27 04:28:07;;;;;;;20.67;7.88;;;1.00;99.90;;;;;;4947914;29;20047;-78
2021/01/27 04:30:36;;;;;;;24.20;10.13;;;1.00;99.90;;;;;;4948326;29;20066;-79
2021/01/27 04:33:08;;;;;;;19.53;9.07;;;1.00;99.90;;;;;;4965673;29;20063;-79
2021/01/27 04:35:39;;;;;;;21.57;9.40;;;1.00;99.90;;;;;;4949350;29;20058;-79
2021/01/27 04:38:07;;;;;;;24.40;10.75;;;1.00;99.90;;;;;;4965755;29;20047;-79
2021/01/27 04:40:37;;;;;;;20.13;9.45;;;1.00;99.90;;;;;;4962781;28;20055;-79
2021/01/27 04:43:16;;;;;;;24.47;11.10;;;1.10;99.90;;;;;;4944679;29;20051;-78
2021/01/27 04:45:54;;;;;;;25.30;10.60;;;1.10;99.90;;;;;;4946383;29;20059;-79
2021/01/27 04:48:28;;;;;;;23.47;11.47;;;1.10;99.90;;;;;;4960779;28;20050;-79
2021/01/27 04:51:01;;;;;;;21.27;8.90;;;1.10;99.90;;;;;;4959962;28;20077;-79
2021/01/27 04:53:43;;;;;;;19.63;8.70;;;1.10;99.90;;;;;;4942584;29;20051;-80
2021/01/27 04:56:52;;;;;;;26.50;10.00;;;1.10;99.90;;;;;;4958178;29;20055;-79
2021/01/27 04:59:30;;;;;;;23.97;9.80;;;1.10;99.90;;;;;;4902134;29;20517;-79
2021/01/27 05:02:20;;;;;;;24.73;9.25;;;1.10;99.90;;;;;;4941083;29;20064;-78
2021/01/27 05:05:00;;;;;;;24.90;9.97;;;1.20;99.90;;;;;;4924497;29;20052;-79
2021/01/27 05:07:33;;;;;;;24.87;9.47;;;1.20;99.90;;;;;;4942533;29;20051;-79
2021/01/27 05:10:06;;;;;;;23.87;10.97;;;1.20;99.90;;;;;;4942416;29;20055;-79
2021/01/27 05:12:40;;;;;;;19.67;8.07;;;1.20;99.90;;;;;;4964496;28;20066;-79
2021/01/27 05:15:11;;;;;;;21.90;9.93;;;1.20;99.90;;;;;;4948746;29;20074;-79
2021/01/27 05:17:43;;;;;;;26.33;10.00;;;1.20;99.90;;;;;;4966199;29;20081;-79
2021/01/27 05:20:12;;;;;;;15.73;5.23;;;1.30;99.90;;;;;;4967527;29;20062;-79
2021/01/27 05:22:41;;;;;;;;;;;1.30;99.90;;;;;;4966692;28;20062;-79
2021/01/27 05:25:12;;;;;;;;;;;1.30;99.90;;;;;;4950340;29;19922;-79
2021/01/27 05:27:43;;;;;;;25.30;8.83;;;1.30;99.90;;;;;;4966764;28;20350;-79
2021/01/27 05:30:25;;;;;;;25.13;10.07;;;1.30;99.90;;;;;;4962656;29;20518;-79
2021/01/27 05:32:57;;;;;;;22.83;9.93;;;1.30;99.90;;;;;;4951398;29;20057;-79
2021/01/27 05:35:26;;;;;;;;;;;1.30;99.90;;;;;;4952888;28;20047;-78
2021/01/27 05:37:59;;;;;;;27.23;9.00;;;1.30;99.90;;;;;;4951837;29;19922;-78
2021/01/27 05:40:32;;;;;;;20.08;9.75;;;1.40;99.90;;;;;;4950246;29;20082;-77
2021/01/27 05:43:13;;;;;;;22.80;10.87;;;1.40;99.90;;;;;;4967097;29;20058;-78
2021/01/27 05:45:49;;;;;;;22.47;10.73;;;1.40;99.90;;;;;;4948703;29;20051;-78
2021/01/27 05:48:27;;;;;;;25.03;11.00;;;1.40;99.90;;;;;;4965331;28;20062;-79
2021/01/27 05:51:18;;;;;;;19.73;8.97;;;1.40;99.90;;;;;;4949092;29;20051;-78
2021/01/27 05:53:46;;;;;;;21.30;9.20;;;1.40;99.90;;;;;;4965162;28;20391;-79
2021/01/27 05:56:20;;;;;;;26.83;10.47;;;1.40;99.90;;;;;;4963795;28;20059;-79
2021/01/27 05:59:01;;;;;;;22.40;9.47;;;1.40;99.90;;;;;;4966830;28;20053;-80
2021/01/27 06:01:41;;;;;;;25.53;10.63;;;1.40;99.90;;;;;;4963434;29;20078;-80
2021/01/27 06:04:22;;;;;;;21.40;9.07;;;1.50;99.90;;;;;;4961927;29;20490;-78
2021/01/27 06:07:02;;;;;;;21.07;9.27;;;1.50;99.90;;;;;;4944961;29;20062;-78
2021/01/27 06:09:48;;;;;;;26.87;10.93;;;1.50;99.90;;;;;;4960165;29;20298;-79
2021/01/27 06:12:28;;;;;;;23.53;10.33;;;1.60;99.90;;;;;;4944044;29;20050;-78
2021/01/27 06:15:19;;;;;;;22.37;9.40;;;1.50;99.90;;;;;;4959492;29;20062;-79
2021/01/27 06:17:49;;;;;;;19.83;8.77;;;1.60;99.90;;;;;;4960071;28;20479;-79
2021/01/27 06:20:31;;;;;;;23.13;7.80;;;1.60;99.90;;;;;;4960727;28;20502;-79
2021/01/27 06:23:31;;;;;;;19.17;10.70;;;1.60;99.90;;;;;;4944093;29;20062;-78
2021/01/27 06:26:25;;;;;;;18.17;7.53;;;1.60;99.90;;;;;;4958637;28;20479;-80
2021/01/27 06:29:24;;;;;;;19.77;9.60;;;1.60;99.90;;;;;;4960172;29;20047;-79
2021/01/27 06:32:16;;;;;;;28.73;12.03;;;1.60;99.90;;;;;;4962391;28;20062;-79
2021/01/27 06:35:02;;;;;;;21.90;10.00;;;1.60;99.90;;;;;;4964760;28;20463;-79
2021/01/27 06:37:55;;;;;;;19.50;8.53;;;1.70;99.90;;;;;;4966718;29;20057;-79
2021/01/27 06:40:36;;;;;;;20.07;8.37;;;1.70;99.90;;;;;;4965005;29;20055;-80
2021/01/27 06:43:24;;;;;;;19.63;9.17;;;1.70;99.90;;;;;;4944684;29;20047;-80
2021/01/27 06:46:09;;;;;;;18.50;7.93;;;1.70;99.90;;;;;;4958959;29;20056;-79
2021/01/27 06:49:05;;;;;;;22.20;9.60;;;1.60;99.90;;;;;;4945904;29;20044;-79
2021/01/27 06:52:07;;;;;;;23.13;11.07;;;1.60;99.90;;;;;;4945670;29;20052;-80
2021/01/27 06:55:03;;;;;;;18.40;9.67;;;1.70;99.90;;;;;;4944632;29;20055;-79
2021/01/27 06:57:53;;;;;;;24.20;10.43;;;1.70;99.90;;;;;;4974217;28;20059;-79
2021/01/27 07:00:40;;;;;;;23.07;10.50;;;1.70;99.90;;;;;;4962888;28;20047;-79
2021/01/27 07:03:41;;;;;;;19.60;9.23;;;1.70;99.90;;;;;;4946273;28;20074;-81
2021/01/27 07:06:58;;;;;;;23.23;10.87;;;1.70;99.90;;;;;;4947099;29;20047;-81
2021/01/27 07:09:49;;;;;;;16.30;8.57;;;1.60;99.90;;;;;;4963437;28;20498;-79
2021/01/27 07:12:24;;;;;;;23.67;9.27;;;1.60;99.90;;;;;;4964112;28;20066;-80
2021/01/27 07:15:04;;;;;;;18.87;9.47;;;1.60;99.90;;;;;;4963939;29;20061;-80
2021/01/27 07:18:05;;;;;;;23.47;11.50;;;1.50;99.90;;;;;;4946267;29;20055;-80
2021/01/27 07:20:35;;;;;;;21.07;11.07;;;1.40;99.90;;;;;;4948591;29;20493;-80
2021/01/27 07:23:12;;;;;;;24.57;11.53;;;1.40;99.90;;;;;;4946738;29;20055;-78
2021/01/27 07:25:55;;;;;;;21.00;10.53;;;1.40;99.90;;;;;;4977234;28;20376;-78
2021/01/27 07:28:29;;;;;;;20.97;10.73;;;1.40;99.90;;;;;;4973049;28;20055;-79
2021/01/27 07:31:04;;;;;;;23.87;11.07;;;1.40;99.90;;;;;;4947391;29;20055;-78
2021/01/27 07:33:38;;;;;;;23.13;11.87;;;1.40;99.90;;;;;;4964221;28;20039;-79
2021/01/27 07:36:33;;;;;;;25.57;11.77;;;1.40;99.90;;;;;;4946404;29;20047;-79
2021/01/27 07:39:05;;;;;;;33.37;13.30;;;1.40;99.90;;;;;;4963622;28;20047;-78
2021/01/27 07:41:43;;;;;;;27.27;12.53;;;1.30;99.90;;;;;;4950298;29;20066;-78
2021/01/27 07:44:17;;;;;;;22.03;12.10;;;1.30;99.90;;;;;;4951336;29;20051;-81
2021/01/27 07:46:51;;;;;;;27.80;12.67;;;1.30;99.90;;;;;;4949065;29;20368;-78
2021/01/27 07:49:27;;;;;;;27.80;11.37;;;1.30;99.90;;;;;;4949974;29;20047;-79
2021/01/27 07:51:58;;;;;;;24.20;12.17;;;1.40;99.90;;;;;;4949819;29;20066;-79
2021/01/27 07:54:35;;;;;;;26.40;13.03;;;1.40;99.90;;;;;;4961958;28;20059;-79
2021/01/27 07:57:22;;;;;;;32.70;14.83;;;1.40;99.90;;;;;;4961742;29;20055;-80
2021/01/27 08:00:01;;;;;;;22.47;11.10;;;1.50;99.90;;;;;;4961847;28;20050;-79
2021/01/27 08:03:02;;;;;;;26.30;11.57;;;1.60;99.90;;;;;;4961227;29;20069;-79
2021/01/27 08:05:37;;;;;;;27.07;13.47;;;1.70;99.90;;;;;;4946070;29;20062;-79
2021/01/27 08:08:09;;;;;;;16.53;7.97;;;1.70;99.90;;;;;;4946365;29;20047;-80
2021/01/27 08:10:39;;;;;;;21.27;9.07;;;1.70;99.90;;;;;;4946793;29;20043;-79
2021/01/27 08:13:09;;;;;;;20.37;9.93;;;1.70;99.90;;;;;;4964688;29;20059;-78
2021/01/27 08:15:43;;;;;;;16.93;8.23;;;1.90;99.90;;;;;;4948854;29;20055;-79
2021/01/27 08:18:17;;;;;;;25.77;8.73;;;1.90;99.90;;;;;;4963710;28;20171;-79
2021/01/27 08:20:45;;;;;;;19.90;10.17;;;2.00;99.90;;;;;;4964310;29;20055;-79
2021/01/27 08:23:45;;;;;;;6.97;3.47;;;2.00;99.90;;;;;;4948228;29;20489;-79
2021/01/27 08:26:51;;;;;;;9.83;4.57;;;2.00;99.90;;;;;;4943953;29;20051;-79
2021/01/27 08:29:32;;;;;;;9.10;4.07;;;1.90;99.90;;;;;;4962778;29;20490;-80
2021/01/27 08:32:23;;;;;;;16.63;6.60;;;1.90;99.90;;;;;;4962762;28;20399;-80
2021/01/27 08:34:52;;;;;;;7.73;3.50;;;1.90;99.90;;;;;;4948779;29;20648;-80
2021/01/27 08:37:22;;;;;;;20.27;8.97;;;1.90;99.90;;;;;;4949865;29;20482;-78
2021/01/27 08:40:17;;;;;;;22.30;8.17;;;2.00;99.90;;;;;;4950526;29;20047;-80
2021/01/27 08:42:51;;;;;;;15.07;6.10;;;2.00;99.90;;;;;;4967872;29;20054;-81
2021/01/27 08:45:32;;;;;;;14.97;5.03;;;2.00;99.90;;;;;;4967534;29;20453;-79
2021/01/27 08:48:04;;;;;;;14.85;7.13;;;2.00;99.90;;;;;;4950221;29;20055;-79
2021/01/27 08:50:43;;;;;;;14.57;8.03;;;2.00;99.90;;;;;;4966924;28;20054;-78
2021/01/27 08:53:16;;;;;;;15.23;6.40;;;2.00;99.90;;;;;;4966450;29;20055;-79
2021/01/27 08:55:57;;;;;;;16.63;7.97;;;2.10;99.90;;;;;;4966628;29;20059;-78
2021/01/27 08:58:35;;;;;;;14.47;7.03;;;2.10;99.90;;;;;;4949845;29;20047;-79
2021/01/27 09:01:12;;;;;;;16.73;7.57;;;2.20;99.90;;;;;;4965226;29;20058;-80
2021/01/27 09:03:53;;;;;;;13.03;6.70;;;2.10;99.90;;;;;;4964567;29;20042;-80
2021/01/27 09:06:37;;;;;;;14.53;6.97;;;2.20;99.90;;;;;;4964521;29;20062;-79
2021/01/27 09:09:31;;;;;;;13.63;7.27;;;2.20;99.90;;;;;;4960508;29;20047;-80
2021/01/27 09:12:04;;;;;;;13.30;7.10;;;2.30;99.90;;;;;;4942727;29;20055;-80
2021/01/27 09:14:39;;;;;;;10.20;5.43;;;2.30;99.90;;;;;;4957925;29;20059;-79
2021/01/27 09:17:08;;;;;;;6.87;4.37;;;2.40;99.90;;;;;;4958814;28;20062;-79
2021/01/27 09:19:37;;;;;;;15.23;6.80;;;2.30;99.90;;;;;;4958625;29;20051;-80
2021/01/27 09:22:23;;;;;;;16.85;7.57;;;2.30;99.90;;;;;;4949262;29;20149;-80
2021/01/27 09:24:52;;;;;;;11.73;5.33;;;2.50;99.90;;;;;;4947113;29;20637;-79
2021/01/27 09:27:27;;;;;;;13.57;5.53;;;2.50;99.90;;;;;;4963761;29;20450;-81
2021/01/27 09:30:02;;;;;;;10.43;5.43;;;2.50;99.90;;;;;;4945571;29;20055;-80
2021/01/27 09:32:33;;;;;;;11.57;5.00;;;2.50;99.90;;;;;;4931446;29;20055;-80
2021/01/27 09:35:27;;;;;;;7.63;4.30;;;2.60;99.90;;;;;;4946837;29;20164;-80
2021/01/27 09:38:04;;;;;;;8.97;4.17;;;2.60;99.90;;;;;;4931014;29;20066;-79
2021/01/27 09:40:37;;;;;;;11.63;6.17;;;2.60;99.90;;;;;;4958097;28;20582;-79
2021/01/27 09:43:11;;;;;;;7.57;3.90;;;2.70;99.90;;;;;;4941826;29;20467;-79
2021/01/27 09:45:43;;;;;;;5.47;3.00;;;2.70;99.90;;;;;;4941754;28;20055;-79
2021/01/27 09:48:17;;;;;;;11.60;5.97;;;2.60;99.90;;;;;;4959670;28;20059;-80
2021/01/27 09:50:55;;;;;;;12.47;5.50;;;2.60;99.90;;;;;;4959463;28;20489;-80
2021/01/27 09:53:25;;;;;;;9.13;4.67;;;2.80;99.90;;;;;;4940829;29;20066;-79
2021/01/27 09:55:56;;;;;;;4.97;2.73;;;2.80;99.90;;;;;;4957260;28;20071;-79
2021/01/27 09:58:31;;;;;;;11.07;4.67;;;2.80;99.90;;;;;;4956310;29;20063;-79
2021/01/27 10:01:06;;;;;;;8.83;4.80;;;2.80;99.90;;;;;;4955889;28;20074;-80
2021/01/27 10:03:41;;;;;;;10.37;5.47;;;3.00;99.90;;;;;;4957848;28;20051;-80
2021/01/27 10:06:31;;;;;;;12.23;5.53;;;3.10;99.90;;;;;;4957539;28;20051;-80
2021/01/27 10:09:01;;;;;;;5.40;2.85;;;3.20;99.90;;;;;;4956588;29;20055;-80
2021/01/27 10:11:30;;;;;;;8.73;3.60;;;2.90;99.90;;;;;;4956757;29;20063;-79
2021/01/27 10:14:09;;;;;;;;;;;3.00;99.90;;;;;;4942942;29;20050;-79
2021/01/27 10:16:54;;;;;;;4.50;2.63;;;3.00;99.90;;;;;;4958178;28;19922;-79
2021/01/27 10:19:30;;;;;;;9.83;3.77;;;3.00;99.90;;;;;;4941923;29;20043;-80
2021/01/27 10:21:59;;;;;;;4.53;1.57;;;3.10;99.90;;;;;;4923158;29;20051;-79
2021/01/27 10:24:51;;;;;;;15.23;4.23;;;3.00;99.90;;;;;;4940406;29;20055;-80
2021/01/27 10:27:24;;;;;;;9.17;3.73;;;3.10;99.90;;;;;;4923190;29;20052;-79
2021/01/27 10:29:54;;;;;;;8.70;4.93;;;3.10;99.90;;;;;;4956441;29;20052;-80
2021/01/27 10:32:37;;;;;;;11.43;4.07;;;3.10;99.90;;;;;;4961030;29;20059;-80
2021/01/27 10:35:31;;;;;;;8.03;4.00;;;3.10;99.90;;;;;;4961165;29;20699;-81
2021/01/27 10:38:25;;;;;;;3.55;1.77;;;3.20;99.90;;;;;;4962144;28;20063;-80
2021/01/27 10:41:07;;;;;;;;;;;3.30;99.90;;;;;;4953859;28;20048;-81
2021/01/27 10:43:45;;;;;;;4.47;2.57;;;3.20;99.90;;;;;;4962798;28;19922;-80
2021/01/27 10:46:29;;;;;;;1.73;0.70;;;3.20;99.90;;;;;;4961953;28;20533;-79
2021/01/27 10:49:03;;;;;;;6.23;1.37;;;3.10;99.90;;;;;;4943175;29;20062;-81
2021/01/27 10:51:38;;;;;;;5.13;1.13;;;3.20;99.90;;;;;;4958176;29;20059;-81
2021/01/27 10:54:06;;;;;;;8.93;4.00;;;3.40;99.90;;;;;;4956066;28;20051;-80
2021/01/27 10:56:40;;;;;;;11.07;4.50;;;3.40;99.90;;;;;;4941015;29;20051;-81
2021/01/27 10:59:07;;;;;;;7.07;3.07;;;3.60;99.90;;;;;;4956282;29;20059;-80
2021/01/27 11:01:37;;;;;;;9.00;3.83;;;3.70;99.90;;;;;;4940215;28;20062;-79
2021/01/27 11:04:06;;;;;;;8.83;2.80;;;3.80;99.90;;;;;;4957077;28;20051;-80
2021/01/27 11:06:34;;;;;;;1.73;1.02;;;3.60;99.90;;;;;;4938354;29;20154;-81
2021/01/27 11:09:04;;;;;;;9.93;4.88;;;3.60;99.90;;;;;;4935169;28;20062;-79
2021/01/27 11:11:37;;;;;;;9.23;3.90;;;3.70;99.90;;;;;;4946327;29;20043;-79
2021/01/27 11:14:08;;;;;;;12.70;4.27;;;3.90;99.90;;;;;;4960502;28;20062;-79
2021/01/27 11:16:37;;;;;;;8.97;3.43;;;4.00;99.90;;;;;;4944415;29;20152;-80
2021/01/27 11:19:05;;;;;;;13.13;3.77;;;4.20;99.90;;;;;;4960147;28;20402;-79
2021/01/27 11:21:33;;;;;;;5.93;3.20;;;4.40;99.90;;;;;;4960015;29;20459;-80
2021/01/27 11:24:00;;;;;;;9.97;3.10;;;4.00;99.90;;;;;;4959631;29;20051;-80
2021/01/27 11:26:30;;;;;;;8.43;4.03;;;4.00;99.90;;;;;;4959501;28;20051;-79
2021/01/27 11:28:58;;;;;;;7.67;3.67;;;3.90;99.90;;;;;;4945252;29;20055;-79
2021/01/27 11:31:49;;;;;;;5.35;2.33;;;3.90;99.90;;;;;;4960777;29;20059;-80
2021/01/27 11:34:18;;;;;;;10.50;3.87;;;3.80;99.90;;;;;;4944594;29;20055;-80
2021/01/27 11:36:46;;;;;;;6.13;2.65;;;3.90;99.90;;;;;;4944085;29;20066;-79
2021/01/27 11:39:13;;;;;;;5.80;3.30;;;3.70;99.90;;;;;;4959014;29;20051;-80
2021/01/27 11:41:40;;;;;;;6.07;3.00;;;3.80;99.90;;;;;;4960500;29;20047;-80
2021/01/27 11:44:09;;;;;;;12.73;4.30;;;4.00;99.90;;;;;;4959795;28;20055;-79
2021/01/27 11:46:39;;;;;;;8.23;2.90;;;4.20;99.90;;;;;;4959586;28;20058;-79
2021/01/27 11:49:06;;;;;;;4.63;2.93;;;4.50;99.90;;;;;;4944744;29;20081;-80
2021/01/27 11:51:39;;;;;;;4.10;2.13;;;4.20;99.90;;;;;;4944046;29;20070;-81
2021/01/27 11:54:07;;;;;;;6.47;2.83;;;4.20;99.90;;;;;;4943713;29;20435;-79
2021/01/27 11:56:37;;;;;;;7.47;3.13;;;4.10;99.90;;;;;;4959629;28;20055;-78
2021/01/27 11:59:04;;;;;;;7.20;3.90;;;4.40;99.90;;;;;;4943908;28;20070;-79
2021/01/27 12:01:35;;;;;;;9.75;3.22;;;4.70;99.90;;;;;;4945417;29;20059;-79
2021/01/27 12:04:09;;;;;;;10.83;3.63;;;4.80;99.90;;;;;;4942219;29;20055;-81
2021/01/27 12:06:48;;;;;;;8.73;3.50;;;4.60;99.90;;;;;;4940464;29;20083;-79
2021/01/27 12:09:18;;;;;;;8.13;3.17;;;4.30;99.90;;;;;;4941901;29;20062;-79
2021/01/27 12:11:46;;;;;;;6.43;2.90;;;4.30;99.90;;;;;;4942198;29;20051;-81
2021/01/27 12:14:13;;;;;;;15.37;3.30;;;4.10;99.90;;;;;;4928712;29;20052;-80
2021/01/27 12:16:44;;;;;;;8.47;3.10;;;4.00;99.90;;;;;;4927999;29;20047;-79
2021/01/27 12:19:14;;;;;;;6.77;2.90;;;4.00;99.90;;;;;;4964065;28;20071;-79
2021/01/27 12:21:45;;;;;;;6.77;3.60;;;3.90;99.90;;;;;;4947959;29;20055;-79
2021/01/27 12:24:15;;;;;;;7.63;3.40;;;3.80;99.90;;;;;;4947009;29;20459;-78
2021/01/27 12:26:47;;;;;;;6.17;3.17;;;3.90;99.90;;;;;;4963318;29;20372;-78
2021/01/27 12:29:15;;;;;;;5.38;3.42;;;4.00;99.90;;;;;;4947482;29;20058;-79
2021/01/27 12:31:43;;;;;;;8.30;3.93;;;4.00;99.90;;;;;;4962606;28;20039;-78
2021/01/27 12:34:11;;;;;;;11.40;4.00;;;4.10;99.90;;;;;;4963966;29;20058;-79
2021/01/27 12:36:39;;;;;;;8.17;2.83;;;4.10;99.90;;;;;;4946958;29;20304;-79
2021/01/27 12:39:08;;;;;;;7.13;2.75;;;4.00;99.90;;;;;;4963876;29;20293;-80
2021/01/27 12:41:36;;;;;;;9.82;2.95;;;4.00;99.90;;;;;;4964371;28;20047;-80
2021/01/27 12:44:04;;;;;;;13.00;3.60;;;4.10;99.90;;;;;;4963329;28;20051;-80
2021/01/27 12:46:35;;;;;;;10.70;3.80;;;4.20;99.90;;;;;;4957772;29;20066;-81
2021/01/27 12:49:04;;;;;;;6.65;2.88;;;4.30;99.90;;;;;;4962260;29;20403;-80
2021/01/27 12:51:32;;;;;;;4.72;1.98;;;4.40;99.90;;;;;;4963294;28;20479;-80
2021/01/27 12:54:00;;;;;;;7.17;3.00;;;4.60;99.90;;;;;;4946294;29;20050;-77
2021/01/27 12:56:29;;;;;;;10.15;2.38;;;5.30;99.70;;;;;;4961787;29;20055;-79
2021/01/27 12:58:56;;;;;;;5.80;3.13;;;6.00;95.70;;;;;;4960389;29;20487;-79
2021/01/27 13:01:24;;;;;;;8.55;3.47;;;6.80;92.50;;;;;;4957662;28;20051;-80
2021/01/27 13:03:52;;;;;;;8.82;3.10;;;8.10;82.40;;;;;;4959507;28;20075;-79
2021/01/27 13:06:20;;;;;;;6.97;3.38;;;8.60;74.50;;;;;;4955259;28;20066;-80
2021/01/27 13:08:49;;;;;;;9.65;3.03;;;8.70;73.00;;;;;;4957705;29;20055;-80
2021/01/27 13:11:17;;;;;;;8.55;2.90;;;8.20;72.60;;;;;;4959633;29;20074;-80
2021/01/27 13:13:46;;;;;;;11.03;3.10;;;7.50;78.10;;;;;;4956292;29;20051;-79
2021/01/27 13:16:14;;;;;;;6.90;3.20;;;7.70;79.00;;;;;;4954679;29;20390;-81
2021/01/27 13:18:42;;;;;;;7.72;3.17;;;7.20;82.80;;;;;;4943002;29;20074;-80
2021/01/27 13:21:10;;;;;;;3.53;1.40;;;7.10;84.20;;;;;;4959344;28;20047;-80
2021/01/27 13:23:47;;;;;;;4.40;2.35;;;6.80;85.10;;;;;;4944490;29;20051;-80
2021/01/27 13:26:15;;;;;;;5.88;2.83;;;6.20;90.10;;;;;;4961997;29;20059;-79
2021/01/27 13:28:46;;;;;;;5.80;1.60;;;5.80;93.00;;;;;;4943242;29;20059;-80
2021/01/27 13:31:14;;;;;;;7.68;3.45;;;6.10;93.60;;;;;;4958664;28;20059;-79